sensor_id;sensor_type;location;lat;lon;timestamp;temperature;humidity
74968;SHT30;63523;51.880;12.630;2024-03-08T00:01:39;2.46;67.36
74968;SHT30;63523;51.880;12.630;2024-03-08T00:04:04;2.38;67.54
74968;SHT30;63523;51.880;12.630;2024-03-08T00:06:31;2.37;67.59
74968;SHT30;63523;51.880;12.630;2024-03-08T00:08:56;2.34;67.89
74968;SHT30;63523;51.880;12.630;2024-03-08T00:11:22;2.30;67.95
74968;SHT30;63523;51.880;12.630;2024-03-08T00:13:47;2.28;67.92
74968;SHT30;63523;51.880;12.630;2024-03-08T00:16:13;2.31;67.51
74968;SHT30;63523;51.880;12.630;2024-03-08T00:18:38;2.35;67.63
74968;SHT30;63523;51.880;12.630;2024-03-08T00:21:03;2.33;67.48
74968;SHT30;63523;51.880;12.630;2024-03-08T00:23:29;2.30;67.64
74968;SHT30;63523;51.880;12.630;2024-03-08T00:25:54;2.31;67.55
74968;SHT30;63523;51.880;12.630;2024-03-08T00:28:21;2.23;67.77
74968;SHT30;63523;51.880;12.630;2024-03-08T00:30:46;2.24;67.89
74968;SHT30;63523;51.880;12.630;2024-03-08T00:33:11;2.23;67.82
74968;SHT30;63523;51.880;12.630;2024-03-08T00:35:37;2.23;67.76
74968;SHT30;63523;51.880;12.630;2024-03-08T00:38:02;2.27;67.55
74968;SHT30;63523;51.880;12.630;2024-03-08T00:40:27;2.25;67.63
74968;SHT30;63523;51.880;12.630;2024-03-08T00:42:54;2.30;67.52
74968;SHT30;63523;51.880;12.630;2024-03-08T00:45:19;2.28;67.40
74968;SHT30;63523;51.880;12.630;2024-03-08T00:47:44;2.21;67.56
74968;SHT30;63523;51.880;12.630;2024-03-08T00:50:10;2.21;67.55
74968;SHT30;63523;51.880;12.630;2024-03-08T00:52:36;2.21;67.83
74968;SHT30;63523;51.880;12.630;2024-03-08T00:55:01;2.18;67.96
74968;SHT30;63523;51.880;12.630;2024-03-08T00:57:27;2.16;67.94
74968;SHT30;63523;51.880;12.630;2024-03-08T00:59:53;2.14;68.10
74968;SHT30;63523;51.880;12.630;2024-03-08T01:02:19;2.13;67.95
74968;SHT30;63523;51.880;12.630;2024-03-08T01:04:44;2.10;68.00
74968;SHT30;63523;51.880;12.630;2024-03-08T01:07:10;2.10;67.84
74968;SHT30;63523;51.880;12.630;2024-03-08T01:09:35;2.07;68.04
74968;SHT30;63523;51.880;12.630;2024-03-08T01:12:01;2.04;67.98
74968;SHT30;63523;51.880;12.630;2024-03-08T01:14:26;1.97;68.21
74968;SHT30;63523;51.880;12.630;2024-03-08T01:16:52;2.00;68.18
74968;SHT30;63523;51.880;12.630;2024-03-08T01:19:17;1.99;68.02
74968;SHT30;63523;51.880;12.630;2024-03-08T01:21:42;1.97;68.20
74968;SHT30;63523;51.880;12.630;2024-03-08T01:24:08;1.95;68.18
74968;SHT30;63523;51.880;12.630;2024-03-08T01:26:33;1.89;68.35
74968;SHT30;63523;51.880;12.630;2024-03-08T01:29:02;1.85;68.49
74968;SHT30;63523;51.880;12.630;2024-03-08T01:31:30;1.85;68.71
74968;SHT30;63523;51.880;12.630;2024-03-08T01:33:56;1.80;68.67
74968;SHT30;63523;51.880;12.630;2024-03-08T01:36:22;1.73;68.83
74968;SHT30;63523;51.880;12.630;2024-03-08T01:38:47;1.68;69.25
74968;SHT30;63523;51.880;12.630;2024-03-08T01:41:13;1.68;69.20
74968;SHT30;63523;51.880;12.630;2024-03-08T01:43:39;1.69;69.08
74968;SHT30;63523;51.880;12.630;2024-03-08T01:46:05;1.66;69.15
74968;SHT30;63523;51.880;12.630;2024-03-08T01:48:30;1.62;69.12
74968;SHT30;63523;51.880;12.630;2024-03-08T01:50:57;1.65;69.21
74968;SHT30;63523;51.880;12.630;2024-03-08T01:53:24;1.68;69.11
74968;SHT30;63523;51.880;12.630;2024-03-08T01:55:49;1.72;69.03
74968;SHT30;63523;51.880;12.630;2024-03-08T01:58:16;1.69;68.96
74968;SHT30;63523;51.880;12.630;2024-03-08T02:00:44;1.58;69.03
74968;SHT30;63523;51.880;12.630;2024-03-08T02:03:11;1.45;69.88
74968;SHT30;63523;51.880;12.630;2024-03-08T02:05:38;1.45;70.07
74968;SHT30;63523;51.880;12.630;2024-03-08T02:08:06;1.42;70.20
74968;SHT30;63523;51.880;12.630;2024-03-08T02:10:35;1.45;70.02
74968;SHT30;63523;51.880;12.630;2024-03-08T02:13:03;1.50;70.57
74968;SHT30;63523;51.880;12.630;2024-03-08T02:15:51;1.47;70.46
74968;SHT30;63523;51.880;12.630;2024-03-08T02:18:16;1.47;70.60
74968;SHT30;63523;51.880;12.630;2024-03-08T02:21:05;1.52;70.42
74968;SHT30;63523;51.880;12.630;2024-03-08T02:23:32;1.54;70.08
74968;SHT30;63523;51.880;12.630;2024-03-08T02:25:57;1.63;70.18
74968;SHT30;63523;51.880;12.630;2024-03-08T02:28:23;1.58;69.78
74968;SHT30;63523;51.880;12.630;2024-03-08T02:30:50;1.61;70.14
74968;SHT30;63523;51.880;12.630;2024-03-08T02:33:22;1.70;69.81
74968;SHT30;63523;51.880;12.630;2024-03-08T02:35:48;1.69;69.83
74968;SHT30;63523;51.880;12.630;2024-03-08T02:38:23;1.65;69.78
74968;SHT30;63523;51.880;12.630;2024-03-08T02:40:50;1.79;69.83
74968;SHT30;63523;51.880;12.630;2024-03-08T02:43:17;1.82;69.84
74968;SHT30;63523;51.880;12.630;2024-03-08T02:45:46;1.89;69.41
74968;SHT30;63523;51.880;12.630;2024-03-08T02:48:12;1.96;69.33
74968;SHT30;63523;51.880;12.630;2024-03-08T02:50:37;2.00;69.20
74968;SHT30;63523;51.880;12.630;2024-03-08T02:53:06;1.97;69.32
74968;SHT30;63523;51.880;12.630;2024-03-08T02:55:32;2.02;69.27
74968;SHT30;63523;51.880;12.630;2024-03-08T02:58:01;2.07;69.14
74968;SHT30;63523;51.880;12.630;2024-03-08T03:00:26;2.13;68.91
74968;SHT30;63523;51.880;12.630;2024-03-08T03:02:51;2.10;69.09
74968;SHT30;63523;51.880;12.630;2024-03-08T03:05:20;2.04;69.39
74968;SHT30;63523;51.880;12.630;2024-03-08T03:07:46;2.02;69.44
74968;SHT30;63523;51.880;12.630;2024-03-08T03:10:11;2.02;69.57
74968;SHT30;63523;51.880;12.630;2024-03-08T03:12:37;2.06;69.25
74968;SHT30;63523;51.880;12.630;2024-03-08T03:15:03;2.04;69.54
74968;SHT30;63523;51.880;12.630;2024-03-08T03:17:29;2.06;69.45
74968;SHT30;63523;51.880;12.630;2024-03-08T03:19:55;2.06;69.46
74968;SHT30;63523;51.880;12.630;2024-03-08T03:22:21;2.02;69.66
74968;SHT30;63523;51.880;12.630;2024-03-08T03:24:46;1.95;69.78
74968;SHT30;63523;51.880;12.630;2024-03-08T03:27:12;1.92;69.81
74968;SHT30;63523;51.880;12.630;2024-03-08T03:29:42;1.89;69.75
74968;SHT30;63523;51.880;12.630;2024-03-08T03:32:13;1.82;69.90
74968;SHT30;63523;51.880;12.630;2024-03-08T03:34:39;1.75;70.32
74968;SHT30;63523;51.880;12.630;2024-03-08T03:37:05;1.68;70.54
74968;SHT30;63523;51.880;12.630;2024-03-08T03:39:32;1.59;70.75
74968;SHT30;63523;51.880;12.630;2024-03-08T03:41:59;1.59;71.12
74968;SHT30;63523;51.880;12.630;2024-03-08T03:44:24;1.58;71.11
74968;SHT30;63523;51.880;12.630;2024-03-08T03:46:50;1.56;71.05
74968;SHT30;63523;51.880;12.630;2024-03-08T03:49:16;1.56;71.37
74968;SHT30;63523;51.880;12.630;2024-03-08T03:51:42;1.55;71.40
74968;SHT30;63523;51.880;12.630;2024-03-08T03:54:07;1.56;71.48
74968;SHT30;63523;51.880;12.630;2024-03-08T03:56:32;1.58;71.42
74968;SHT30;63523;51.880;12.630;2024-03-08T03:58:57;1.48;71.65
74968;SHT30;63523;51.880;12.630;2024-03-08T04:01:23;1.45;71.79
74968;SHT30;63523;51.880;12.630;2024-03-08T04:03:49;1.47;71.96
74968;SHT30;63523;51.880;12.630;2024-03-08T04:06:14;1.45;71.99
74968;SHT30;63523;51.880;12.630;2024-03-08T04:08:40;1.48;71.74
74968;SHT30;63523;51.880;12.630;2024-03-08T04:11:06;1.42;72.04
74968;SHT30;63523;51.880;12.630;2024-03-08T04:13:31;1.42;72.01
74968;SHT30;63523;51.880;12.630;2024-03-08T04:15:57;1.45;72.10
74968;SHT30;63523;51.880;12.630;2024-03-08T04:18:22;1.51;71.98
74968;SHT30;63523;51.880;12.630;2024-03-08T04:20:47;1.51;71.81
74968;SHT30;63523;51.880;12.630;2024-03-08T04:23:14;1.50;72.08
74968;SHT30;63523;51.880;12.630;2024-03-08T04:25:41;1.51;72.01
74968;SHT30;63523;51.880;12.630;2024-03-08T04:28:07;1.50;71.95
74968;SHT30;63523;51.880;12.630;2024-03-08T04:30:32;1.51;72.16
74968;SHT30;63523;51.880;12.630;2024-03-08T04:32:57;1.50;72.25
74968;SHT30;63523;51.880;12.630;2024-03-08T04:35:23;1.48;72.07
74968;SHT30;63523;51.880;12.630;2024-03-08T04:37:48;1.44;72.27
74968;SHT30;63523;51.880;12.630;2024-03-08T04:40:13;1.48;72.23
74968;SHT30;63523;51.880;12.630;2024-03-08T04:42:40;1.47;72.13
74968;SHT30;63523;51.880;12.630;2024-03-08T04:45:05;1.45;72.37
74968;SHT30;63523;51.880;12.630;2024-03-08T04:47:33;1.45;72.29
74968;SHT30;63523;51.880;12.630;2024-03-08T04:49:58;1.52;71.97
74968;SHT30;63523;51.880;12.630;2024-03-08T04:52:23;1.50;72.20
74968;SHT30;63523;51.880;12.630;2024-03-08T04:54:48;1.52;71.93
74968;SHT30;63523;51.880;12.630;2024-03-08T04:57:14;1.58;71.72
74968;SHT30;63523;51.880;12.630;2024-03-08T04:59:39;1.52;71.92
74968;SHT30;63523;51.880;12.630;2024-03-08T05:02:05;1.52;71.85
74968;SHT30;63523;51.880;12.630;2024-03-08T05:04:30;1.47;72.18
74968;SHT30;63523;51.880;12.630;2024-03-08T05:06:55;1.34;72.36
74968;SHT30;63523;51.880;12.630;2024-03-08T05:09:21;1.30;72.63
74968;SHT30;63523;51.880;12.630;2024-03-08T05:11:46;1.30;72.51
74968;SHT30;63523;51.880;12.630;2024-03-08T05:14:13;1.26;72.68
74968;SHT30;63523;51.880;12.630;2024-03-08T05:16:43;1.22;72.87
74968;SHT30;63523;51.880;12.630;2024-03-08T05:19:08;1.17;73.06
74968;SHT30;63523;51.880;12.630;2024-03-08T05:21:33;1.12;72.99
74968;SHT30;63523;51.880;12.630;2024-03-08T05:23:59;1.10;73.06
74968;SHT30;63523;51.880;12.630;2024-03-08T05:26:24;1.01;73.43
74968;SHT30;63523;51.880;12.630;2024-03-08T05:28:49;1.01;73.35
74968;SHT30;63523;51.880;12.630;2024-03-08T05:31:19;0.99;73.60
74968;SHT30;63523;51.880;12.630;2024-03-08T05:33:47;0.95;73.69
74968;SHT30;63523;51.880;12.630;2024-03-08T05:36:12;0.97;73.77
74968;SHT30;63523;51.880;12.630;2024-03-08T05:38:40;0.93;73.55
74968;SHT30;63523;51.880;12.630;2024-03-08T05:41:06;0.92;73.83
74968;SHT30;63523;51.880;12.630;2024-03-08T05:43:32;0.89;73.76
74968;SHT30;63523;51.880;12.630;2024-03-08T05:45:58;0.92;73.60
74968;SHT30;63523;51.880;12.630;2024-03-08T05:48:23;1.00;73.62
74968;SHT30;63523;51.880;12.630;2024-03-08T05:50:50;0.95;73.55
74968;SHT30;63523;51.880;12.630;2024-03-08T05:53:15;0.90;73.70
74968;SHT30;63523;51.880;12.630;2024-03-08T05:55:40;0.99;73.45
74968;SHT30;63523;51.880;12.630;2024-03-08T05:58:06;1.01;73.41
74968;SHT30;63523;51.880;12.630;2024-03-08T06:00:33;1.06;73.52
74968;SHT30;63523;51.880;12.630;2024-03-08T06:02:58;1.10;73.32
74968;SHT30;63523;51.880;12.630;2024-03-08T06:05:24;1.16;72.82
74968;SHT30;63523;51.880;12.630;2024-03-08T06:07:49;1.19;72.81
74968;SHT30;63523;51.880;12.630;2024-03-08T06:10:15;1.16;72.93
74968;SHT30;63523;51.880;12.630;2024-03-08T06:12:42;1.27;73.16
74968;SHT30;63523;51.880;12.630;2024-03-08T06:15:09;1.37;72.46
74968;SHT30;63523;51.880;12.630;2024-03-08T06:17:38;1.50;72.11
74968;SHT30;63523;51.880;12.630;2024-03-08T06:20:03;1.58;71.91
74968;SHT30;63523;51.880;12.630;2024-03-08T06:22:39;1.69;71.92
74968;SHT30;63523;51.880;12.630;2024-03-08T06:25:09;1.75;71.79
74968;SHT30;63523;51.880;12.630;2024-03-08T06:27:36;1.86;71.06
74968;SHT30;63523;51.880;12.630;2024-03-08T06:30:01;1.95;71.16
74968;SHT30;63523;51.880;12.630;2024-03-08T06:32:27;2.03;70.67
74968;SHT30;63523;51.880;12.630;2024-03-08T06:34:52;2.09;70.94
74968;SHT30;63523;51.880;12.630;2024-03-08T06:37:17;2.21;70.44
74968;SHT30;63523;51.880;12.630;2024-03-08T06:39:47;2.27;70.19
74968;SHT30;63523;51.880;12.630;2024-03-08T06:42:13;2.35;69.80
74968;SHT30;63523;51.880;12.630;2024-03-08T06:44:38;2.45;69.67
74968;SHT30;63523;51.880;12.630;2024-03-08T06:47:10;2.46;70.10
74968;SHT30;63523;51.880;12.630;2024-03-08T06:49:36;2.52;70.03
74968;SHT30;63523;51.880;12.630;2024-03-08T06:52:01;2.58;69.95
74968;SHT30;63523;51.880;12.630;2024-03-08T06:54:26;2.68;69.60
74968;SHT30;63523;51.880;12.630;2024-03-08T06:56:51;2.73;69.50
74968;SHT30;63523;51.880;12.630;2024-03-08T06:59:17;2.79;69.40
74968;SHT30;63523;51.880;12.630;2024-03-08T07:01:43;2.92;69.12
74968;SHT30;63523;51.880;12.630;2024-03-08T07:04:08;3.04;68.73
74968;SHT30;63523;51.880;12.630;2024-03-08T07:06:33;3.06;68.31
74968;SHT30;63523;51.880;12.630;2024-03-08T07:08:59;3.14;68.65
74968;SHT30;63523;51.880;12.630;2024-03-08T07:11:24;3.18;68.66
74968;SHT30;63523;51.880;12.630;2024-03-08T07:13:49;3.27;68.52
74968;SHT30;63523;51.880;12.630;2024-03-08T07:16:14;3.35;68.43
74968;SHT30;63523;51.880;12.630;2024-03-08T07:18:40;3.46;67.99
74968;SHT30;63523;51.880;12.630;2024-03-08T07:21:10;3.56;67.37
74968;SHT30;63523;51.880;12.630;2024-03-08T07:23:36;3.68;67.30
74968;SHT30;63523;51.880;12.630;2024-03-08T07:26:34;3.75;67.05
74968;SHT30;63523;51.880;12.630;2024-03-08T07:29:00;3.79;67.48
74968;SHT30;63523;51.880;12.630;2024-03-08T07:31:25;3.82;66.54
74968;SHT30;63523;51.880;12.630;2024-03-08T07:34:00;3.83;67.17
74968;SHT30;63523;51.880;12.630;2024-03-08T07:36:25;3.85;66.99
74968;SHT30;63523;51.880;12.630;2024-03-08T07:38:50;3.89;67.64
74968;SHT30;63523;51.880;12.630;2024-03-08T07:41:16;4.03;67.66
74968;SHT30;63523;51.880;12.630;2024-03-08T07:43:41;4.15;66.93
74968;SHT30;63523;51.880;12.630;2024-03-08T07:46:07;4.27;66.43
74968;SHT30;63523;51.880;12.630;2024-03-08T07:48:35;4.21;66.42
74968;SHT30;63523;51.880;12.630;2024-03-08T07:51:01;4.27;65.96
74968;SHT30;63523;51.880;12.630;2024-03-08T07:53:28;4.25;66.54
74968;SHT30;63523;51.880;12.630;2024-03-08T07:55:53;4.35;66.33
74968;SHT30;63523;51.880;12.630;2024-03-08T07:58:18;4.48;66.03
74968;SHT30;63523;51.880;12.630;2024-03-08T08:00:43;4.55;65.92
74968;SHT30;63523;51.880;12.630;2024-03-08T08:03:09;4.53;65.53
74968;SHT30;63523;51.880;12.630;2024-03-08T08:05:34;4.56;66.39
74968;SHT30;63523;51.880;12.630;2024-03-08T08:08:01;4.65;66.16
74968;SHT30;63523;51.880;12.630;2024-03-08T08:10:28;4.75;65.31
74968;SHT30;63523;51.880;12.630;2024-03-08T08:12:53;4.76;66.27
74968;SHT30;63523;51.880;12.630;2024-03-08T08:15:19;4.84;65.71
74968;SHT30;63523;51.880;12.630;2024-03-08T08:17:44;4.98;65.93
74968;SHT30;63523;51.880;12.630;2024-03-08T08:20:11;5.11;66.45
74968;SHT30;63523;51.880;12.630;2024-03-08T08:22:41;5.20;65.31
74968;SHT30;63523;51.880;12.630;2024-03-08T08:25:08;5.27;64.33
74968;SHT30;63523;51.880;12.630;2024-03-08T08:27:33;5.20;65.33
74968;SHT30;63523;51.880;12.630;2024-03-08T08:29:59;5.42;65.55
74968;SHT30;63523;51.880;12.630;2024-03-08T08:32:24;5.56;64.59
74968;SHT30;63523;51.880;12.630;2024-03-08T08:34:49;5.65;64.37
74968;SHT30;63523;51.880;12.630;2024-03-08T08:37:15;5.73;64.55
74968;SHT30;63523;51.880;12.630;2024-03-08T08:39:41;5.89;64.90
74968;SHT30;63523;51.880;12.630;2024-03-08T08:42:07;6.03;63.28
74968;SHT30;63523;51.880;12.630;2024-03-08T08:44:34;6.15;62.88
74968;SHT30;63523;51.880;12.630;2024-03-08T08:47:00;6.22;63.20
74968;SHT30;63523;51.880;12.630;2024-03-08T08:49:25;6.39;62.24
74968;SHT30;63523;51.880;12.630;2024-03-08T08:51:51;6.38;61.93
74968;SHT30;63523;51.880;12.630;2024-03-08T08:54:16;6.28;62.12
74968;SHT30;63523;51.880;12.630;2024-03-08T08:56:42;6.25;62.82
74968;SHT30;63523;51.880;12.630;2024-03-08T08:59:10;6.26;62.61
74968;SHT30;63523;51.880;12.630;2024-03-08T09:01:38;6.42;63.96
74968;SHT30;63523;51.880;12.630;2024-03-08T09:04:04;6.63;61.93
74968;SHT30;63523;51.880;12.630;2024-03-08T09:06:29;6.81;60.44
74968;SHT30;63523;51.880;12.630;2024-03-08T09:08:54;6.90;60.31
74968;SHT30;63523;51.880;12.630;2024-03-08T09:11:20;6.81;59.80
74968;SHT30;63523;51.880;12.630;2024-03-08T09:13:45;6.87;60.88
74968;SHT30;63523;51.880;12.630;2024-03-08T09:16:11;7.15;60.83
74968;SHT30;63523;51.880;12.630;2024-03-08T09:18:36;7.38;57.50
74968;SHT30;63523;51.880;12.630;2024-03-08T09:21:02;7.46;57.78
74968;SHT30;63523;51.880;12.630;2024-03-08T09:23:28;7.39;57.78
74968;SHT30;63523;51.880;12.630;2024-03-08T09:25:56;7.38;58.37
74968;SHT30;63523;51.880;12.630;2024-03-08T09:28:22;7.63;59.05
74968;SHT30;63523;51.880;12.630;2024-03-08T09:30:48;7.90;56.92
74968;SHT30;63523;51.880;12.630;2024-03-08T09:33:13;8.02;55.78
74968;SHT30;63523;51.880;12.630;2024-03-08T09:35:42;8.15;55.66
74968;SHT30;63523;51.880;12.630;2024-03-08T09:38:07;8.32;53.31
74968;SHT30;63523;51.880;12.630;2024-03-08T09:40:38;8.45;55.01
74968;SHT30;63523;51.880;12.630;2024-03-08T09:43:03;8.53;53.31
74968;SHT30;63523;51.880;12.630;2024-03-08T09:45:31;8.62;52.45
74968;SHT30;63523;51.880;12.630;2024-03-08T09:48:01;8.76;51.73
74968;SHT30;63523;51.880;12.630;2024-03-08T09:50:26;8.80;50.56
74968;SHT30;63523;51.880;12.630;2024-03-08T09:52:53;8.60;50.86
74968;SHT30;63523;51.880;12.630;2024-03-08T09:55:22;8.60;49.65
74968;SHT30;63523;51.880;12.630;2024-03-08T09:57:47;8.60;50.11
74968;SHT30;63523;51.880;12.630;2024-03-08T10:00:33;8.69;48.53
74968;SHT30;63523;51.880;12.630;2024-03-08T10:03:02;8.74;49.06
74968;SHT30;63523;51.880;12.630;2024-03-08T10:05:28;8.73;50.50
74968;SHT30;63523;51.880;12.630;2024-03-08T10:07:53;8.70;49.92
74968;SHT30;63523;51.880;12.630;2024-03-08T10:10:18;8.80;49.84
74968;SHT30;63523;51.880;12.630;2024-03-08T10:12:44;8.35;50.32
74968;SHT30;63523;51.880;12.630;2024-03-08T10:15:11;8.50;52.00
74968;SHT30;63523;51.880;12.630;2024-03-08T10:17:37;8.71;51.48
74968;SHT30;63523;51.880;12.630;2024-03-08T10:20:13;8.85;51.30
74968;SHT30;63523;51.880;12.630;2024-03-08T10:22:40;8.87;52.83
74968;SHT30;63523;51.880;12.630;2024-03-08T10:25:08;8.97;51.88
74968;SHT30;63523;51.880;12.630;2024-03-08T10:27:35;9.11;53.12
74968;SHT30;63523;51.880;12.630;2024-03-08T10:30:01;9.35;51.55
74968;SHT30;63523;51.880;12.630;2024-03-08T10:32:26;9.50;51.22
74968;SHT30;63523;51.880;12.630;2024-03-08T10:34:51;9.53;51.90
74968;SHT30;63523;51.880;12.630;2024-03-08T10:37:21;9.49;52.10
74968;SHT30;63523;51.880;12.630;2024-03-08T10:40:02;9.66;51.07
74968;SHT30;63523;51.880;12.630;2024-03-08T10:42:38;9.66;50.40
74968;SHT30;63523;51.880;12.630;2024-03-08T10:45:15;9.73;51.39
74968;SHT30;63523;51.880;12.630;2024-03-08T10:47:49;9.83;52.51
74968;SHT30;63523;51.880;12.630;2024-03-08T10:50:19;9.93;50.33
74968;SHT30;63523;51.880;12.630;2024-03-08T10:52:51;9.86;50.30
74968;SHT30;63523;51.880;12.630;2024-03-08T10:55:18;9.74;50.57
74968;SHT30;63523;51.880;12.630;2024-03-08T10:57:45;9.66;50.68
74968;SHT30;63523;51.880;12.630;2024-03-08T11:00:12;9.66;50.84
74968;SHT30;63523;51.880;12.630;2024-03-08T11:02:38;9.77;52.65
74968;SHT30;63523;51.880;12.630;2024-03-08T11:05:04;9.78;51.25
74968;SHT30;63523;51.880;12.630;2024-03-08T11:07:34;9.81;51.86
74968;SHT30;63523;51.880;12.630;2024-03-08T11:10:02;9.81;51.81
74968;SHT30;63523;51.880;12.630;2024-03-08T11:12:36;9.76;51.24
74968;SHT30;63523;51.880;12.630;2024-03-08T11:15:12;9.77;52.06
74968;SHT30;63523;51.880;12.630;2024-03-08T11:20:09;9.88;51.49
74968;SHT30;63523;51.880;12.630;2024-03-08T11:22:50;9.74;51.49
74968;SHT30;63523;51.880;12.630;2024-03-08T11:25:41;9.50;52.69
74968;SHT30;63523;51.880;12.630;2024-03-08T11:30:42;9.39;53.89
74968;SHT30;63523;51.880;12.630;2024-03-08T11:33:11;9.38;52.79
74968;SHT30;63523;51.880;12.630;2024-03-08T11:35:38;9.25;53.24
74968;SHT30;63523;51.880;12.630;2024-03-08T11:38:04;9.10;53.97
74968;SHT30;63523;51.880;12.630;2024-03-08T11:40:29;9.10;52.93
74968;SHT30;63523;51.880;12.630;2024-03-08T11:42:55;9.10;53.54
74968;SHT30;63523;51.880;12.630;2024-03-08T11:45:20;9.05;52.74
74968;SHT30;63523;51.880;12.630;2024-03-08T11:47:50;9.05;53.56
74968;SHT30;63523;51.880;12.630;2024-03-08T11:50:16;9.21;52.70
74968;SHT30;63523;51.880;12.630;2024-03-08T11:52:43;9.32;51.49
74968;SHT30;63523;51.880;12.630;2024-03-08T11:55:09;9.38;50.48
74968;SHT30;63523;51.880;12.630;2024-03-08T11:57:37;9.47;50.40
74968;SHT30;63523;51.880;12.630;2024-03-08T12:00:03;9.24;50.42
74968;SHT30;63523;51.880;12.630;2024-03-08T12:02:35;9.25;51.26
74968;SHT30;63523;51.880;12.630;2024-03-08T12:05:02;9.31;49.90
74968;SHT30;63523;51.880;12.630;2024-03-08T12:07:31;9.38;47.99
74968;SHT30;63523;51.880;12.630;2024-03-08T12:10:19;9.36;47.34
74968;SHT30;63523;51.880;12.630;2024-03-08T12:12:47;9.26;47.45
74968;SHT30;63523;51.880;12.630;2024-03-08T12:15:15;9.29;47.14
74968;SHT30;63523;51.880;12.630;2024-03-08T12:17:40;9.26;47.55
74968;SHT30;63523;51.880;12.630;2024-03-08T12:20:18;9.24;49.67
74968;SHT30;63523;51.880;12.630;2024-03-08T12:22:44;9.39;46.73
74968;SHT30;63523;51.880;12.630;2024-03-08T12:25:13;9.43;47.39
74968;SHT30;63523;51.880;12.630;2024-03-08T12:27:43;9.42;47.96
74968;SHT30;63523;51.880;12.630;2024-03-08T12:30:25;9.43;48.38
74968;SHT30;63523;51.880;12.630;2024-03-08T12:32:54;9.49;48.55
74968;SHT30;63523;51.880;12.630;2024-03-08T12:35:26;9.56;48.48
74968;SHT30;63523;51.880;12.630;2024-03-08T12:37:59;9.47;46.29
74968;SHT30;63523;51.880;12.630;2024-03-08T12:40:29;9.52;47.89
74968;SHT30;63523;51.880;12.630;2024-03-08T12:42:58;9.60;49.66
74968;SHT30;63523;51.880;12.630;2024-03-08T12:45:24;9.74;46.27
74968;SHT30;63523;51.880;12.630;2024-03-08T12:47:53;9.67;46.74
74968;SHT30;63523;51.880;12.630;2024-03-08T12:50:20;9.64;46.28
74968;SHT30;63523;51.880;12.630;2024-03-08T12:52:45;9.67;45.60
74968;SHT30;63523;51.880;12.630;2024-03-08T12:55:11;9.52;46.15
74968;SHT30;63523;51.880;12.630;2024-03-08T12:57:37;9.43;46.21
74968;SHT30;63523;51.880;12.630;2024-03-08T13:00:04;9.39;46.47
74968;SHT30;63523;51.880;12.630;2024-03-08T13:02:30;9.36;46.68
74968;SHT30;63523;51.880;12.630;2024-03-08T13:04:56;9.40;46.92
74968;SHT30;63523;51.880;12.630;2024-03-08T13:07:25;9.53;46.49
74968;SHT30;63523;51.880;12.630;2024-03-08T13:09:52;9.59;45.57
74968;SHT30;63523;51.880;12.630;2024-03-08T13:12:18;9.59;45.36
74968;SHT30;63523;51.880;12.630;2024-03-08T13:14:45;9.60;46.10
74968;SHT30;63523;51.880;12.630;2024-03-08T13:17:10;9.59;44.89
74968;SHT30;63523;51.880;12.630;2024-03-08T13:19:36;9.46;46.34
74968;SHT30;63523;51.880;12.630;2024-03-08T13:22:03;9.47;45.53
74968;SHT30;63523;51.880;12.630;2024-03-08T13:24:32;9.57;46.58
74968;SHT30;63523;51.880;12.630;2024-03-08T13:26:59;9.71;44.48
74968;SHT30;63523;51.880;12.630;2024-03-08T13:29:25;9.66;44.47
74968;SHT30;63523;51.880;12.630;2024-03-08T13:31:50;9.63;45.07
74968;SHT30;63523;51.880;12.630;2024-03-08T13:34:20;9.67;44.89
74968;SHT30;63523;51.880;12.630;2024-03-08T13:36:53;9.81;45.11
74968;SHT30;63523;51.880;12.630;2024-03-08T13:39:19;9.80;43.57
74968;SHT30;63523;51.880;12.630;2024-03-08T13:41:46;9.80;44.70
74968;SHT30;63523;51.880;12.630;2024-03-08T13:44:11;9.84;43.28
74968;SHT30;63523;51.880;12.630;2024-03-08T13:46:37;9.69;44.69
74968;SHT30;63523;51.880;12.630;2024-03-08T13:49:04;9.63;43.69
74968;SHT30;63523;51.880;12.630;2024-03-08T13:51:35;9.66;46.38
74968;SHT30;63523;51.880;12.630;2024-03-08T13:54:00;9.73;44.20
74968;SHT30;63523;51.880;12.630;2024-03-08T13:56:26;9.77;44.28
74968;SHT30;63523;51.880;12.630;2024-03-08T13:58:51;9.80;44.54
74968;SHT30;63523;51.880;12.630;2024-03-08T14:01:17;9.94;44.88
74968;SHT30;63523;51.880;12.630;2024-03-08T14:03:42;9.95;44.35
74968;SHT30;63523;51.880;12.630;2024-03-08T14:06:08;10.02;42.92
74968;SHT30;63523;51.880;12.630;2024-03-08T14:08:35;10.04;43.27
74968;SHT30;63523;51.880;12.630;2024-03-08T14:11:04;10.04;43.39
74968;SHT30;63523;51.880;12.630;2024-03-08T14:13:40;10.09;44.99
74968;SHT30;63523;51.880;12.630;2024-03-08T14:16:06;10.07;42.83
74968;SHT30;63523;51.880;12.630;2024-03-08T14:18:34;9.99;43.13
74968;SHT30;63523;51.880;12.630;2024-03-08T14:20:59;9.95;44.48
74968;SHT30;63523;51.880;12.630;2024-03-08T14:23:24;10.07;43.72
74968;SHT30;63523;51.880;12.630;2024-03-08T14:25:50;10.08;43.84
74968;SHT30;63523;51.880;12.630;2024-03-08T14:28:17;10.07;43.70
74968;SHT30;63523;51.880;12.630;2024-03-08T14:30:44;10.01;43.03
74968;SHT30;63523;51.880;12.630;2024-03-08T14:33:09;9.95;43.48
74968;SHT30;63523;51.880;12.630;2024-03-08T14:35:35;9.93;44.30
74968;SHT30;63523;51.880;12.630;2024-03-08T14:38:01;9.93;44.11
74968;SHT30;63523;51.880;12.630;2024-03-08T14:40:27;9.95;44.24
74968;SHT30;63523;51.880;12.630;2024-03-08T14:42:53;10.02;44.09
74968;SHT30;63523;51.880;12.630;2024-03-08T14:45:19;10.01;44.50
74968;SHT30;63523;51.880;12.630;2024-03-08T14:47:48;9.98;44.30
74968;SHT30;63523;51.880;12.630;2024-03-08T14:50:16;9.99;44.16
74968;SHT30;63523;51.880;12.630;2024-03-08T14:52:42;9.98;44.13
74968;SHT30;63523;51.880;12.630;2024-03-08T14:55:08;9.88;44.78
74968;SHT30;63523;51.880;12.630;2024-03-08T14:57:35;9.83;45.42
74968;SHT30;63523;51.880;12.630;2024-03-08T15:00:00;9.81;45.25
74968;SHT30;63523;51.880;12.630;2024-03-08T15:02:31;9.84;44.86
74968;SHT30;63523;51.880;12.630;2024-03-08T15:05:02;9.93;44.58
74968;SHT30;63523;51.880;12.630;2024-03-08T15:07:34;9.98;44.23
74968;SHT30;63523;51.880;12.630;2024-03-08T15:09:59;9.97;45.15
74968;SHT30;63523;51.880;12.630;2024-03-08T15:12:24;9.90;45.12
74968;SHT30;63523;51.880;12.630;2024-03-08T15:14:51;9.91;45.60
74968;SHT30;63523;51.880;12.630;2024-03-08T15:17:18;9.90;45.04
74968;SHT30;63523;51.880;12.630;2024-03-08T15:19:47;9.88;46.06
74968;SHT30;63523;51.880;12.630;2024-03-08T15:22:13;9.88;46.45
74968;SHT30;63523;51.880;12.630;2024-03-08T15:24:38;9.91;45.62
74968;SHT30;63523;51.880;12.630;2024-03-08T15:27:04;9.88;45.08
74968;SHT30;63523;51.880;12.630;2024-03-08T15:29:30;9.83;45.57
74968;SHT30;63523;51.880;12.630;2024-03-08T15:31:57;9.81;45.15
74968;SHT30;63523;51.880;12.630;2024-03-08T15:34:22;9.76;45.54